Roberts, MT (59070)

1:43 PM MDT on August 24, 2016 (GMT -0600)
Willow Creek Road | | Change Station

Elev 5102 ft 45.27 °N, 109.26 °W | Updated 10 minutes ago

Overcast
Overcast
60.1 °F
Feels Like 60.1 °F
N
8.9
Wind Variable Wind from NW

Today
High -- | Low -- °F
--% Chance of Precip.
Yesterday
High -- | Low -- °F
Precip. -- in
Pressure 30.20 in
Visibility 10.0 miles
Clouds Overcast 7000 ft
Dew Point 41 °F
Humidity 49%
Rainfall 0.00 in
Snow Depth Not available.
6:29 AM 8:07 PM
Waning Gibbous, 54% visible
METAR KBIL 241853Z 34017G25KT 10SM OVC070 19/04 A3025 RMK AO2 PK WND 32027/1818 SLP226 T01940044
Pressure 30.20 in
Visibility 10.0 miles
Clouds Overcast 7000 ft
Dew Point 41 °F
Humidity 49%
Rainfall 0.00 in
Snow Depth Not available.
6:29 AM 8:07 PM
Waning Gibbous, 54% visible
METAR KBIL 241853Z 34017G25KT 10SM OVC070 19/04 A3025 RMK AO2 PK WND 32027/1818 SLP226 T01940044

10-Day Weather Forecast

Almanac

Astronomy

Aug. 24, 2016 Rise Set
Actual Time
Civil Twilight
Nautical Twilight
Astronomical Twilight
Moon
Length of Visible Light
Length of Day
Tomorrow will be .
, % of the Moon is Illuminated

Today's Extremes

State Highs State Lows

Community

WunderPhotos

Upload Photos

1,934,690 photos uploaded!

WunderBlog® & News

Nearby

Air Quality

  Air Quality AQ Index Pollutant
Not available.

Snow Depth

Station Depth Elevation

Earthquake Activity

City Distance Mag. Time & Date
Minimum magnitude displayed is 2.5.

Coastal Water Temperatures

Place Temperature

Stations

Nearby Weather Stations

Station Location Temp. Windchill Dew Point Humidity Wind Precip. Elev Updated Type
                   

Watches & Warnings

There are currently no watches in effect.